createdAt,value
2023-01-29T00:02:40.835Z,-1.11
2023-01-29T00:05:28.222Z,-1.11
2023-01-29T00:08:19.352Z,-1.09
2023-01-29T00:11:04.935Z,-1.09
2023-01-29T00:13:35.969Z,-1.09
2023-01-29T00:16:26.879Z,-1.10
2023-01-29T00:18:57.437Z,-1.10
2023-01-29T00:21:48.407Z,-1.11
2023-01-29T00:24:39.016Z,-1.13
2023-01-29T00:27:30.514Z,-1.15
2023-01-29T00:30:19.824Z,-1.16
2023-01-29T00:33:04.183Z,-1.17
2023-01-29T00:35:47.640Z,-1.17
2023-01-29T00:38:27.447Z,-1.18
2023-01-29T00:41:30.577Z,-1.20
2023-01-29T00:44:38.706Z,-1.22
2023-01-29T00:47:33.553Z,-1.25
2023-01-29T00:50:24.510Z,-1.26
2023-01-29T00:53:15.169Z,-1.27
2023-01-29T00:56:06.431Z,-1.27
2023-01-29T00:58:57.662Z,-1.27
2023-01-29T01:02:06.011Z,-1.28
2023-01-29T01:04:56.974Z,-1.26
2023-01-29T01:07:49.446Z,-1.26
2023-01-29T01:10:40.124Z,-1.24
2023-01-29T01:13:30.842Z,-1.24
2023-01-29T01:16:18.696Z,-1.23
2023-01-29T01:18:56.772Z,-1.22
2023-01-29T01:21:48.529Z,-1.21
2023-01-29T01:24:39.593Z,-1.20
2023-01-29T01:27:30.350Z,-1.19
2023-01-29T01:30:21.291Z,-1.19
2023-01-29T01:33:11.907Z,-1.17
2023-01-29T01:35:45.317Z,-1.17
2023-01-29T01:38:25.695Z,-1.17
2023-01-29T01:41:09.076Z,-1.17
2023-01-29T01:43:54.069Z,-1.18
2023-01-29T01:46:44.715Z,-1.18
2023-01-29T01:49:35.718Z,-1.19
2023-01-29T01:52:26.700Z,-1.19
2023-01-29T01:55:21.575Z,-1.19
2023-01-29T01:58:10.487Z,-1.19
2023-01-29T02:01:02.073Z,-1.18
2023-01-29T02:04:16.462Z,-1.19
2023-01-29T02:07:18.606Z,-1.18
2023-01-29T02:10:17.215Z,-1.18
2023-01-29T02:13:09.662Z,-1.18
2023-01-29T02:16:00.528Z,-1.19
2023-01-29T02:18:52.130Z,-1.20
2023-01-29T02:21:53.711Z,-1.20
2023-01-29T02:25:10.069Z,-1.23
2023-01-29T02:28:13.081Z,-1.26
2023-01-29T02:31:04.773Z,-1.29
2023-01-29T02:34:03.799Z,-1.32
2023-01-29T02:36:59.113Z,-1.35
2023-01-29T02:39:49.950Z,-1.38
2023-01-29T02:42:37.161Z,-1.43
2023-01-29T02:45:34.574Z,-1.47
2023-01-29T02:48:28.893Z,-1.51
2023-01-29T02:51:07.692Z,-1.55
2023-01-29T02:53:59.183Z,-1.60
2023-01-29T02:56:55.414Z,-1.64
2023-01-29T02:59:44.557Z,-1.68
2023-01-29T03:02:19.970Z,-1.71
2023-01-29T03:05:17.970Z,-1.76
2023-01-29T03:08:08.396Z,-1.80
2023-01-29T03:10:55.559Z,-1.85
2023-01-29T03:13:51.435Z,-1.90
2023-01-29T03:16:47.890Z,-1.95
2023-01-29T03:19:22.111Z,-2.00
2023-01-29T03:22:16.618Z,-2.05
2023-01-29T03:25:09.518Z,-2.10
2023-01-29T03:28:22.499Z,-2.18
2023-01-29T03:31:28.383Z,-2.26
2023-01-29T03:34:24.543Z,-2.33
2023-01-29T03:37:21.743Z,-2.37
2023-01-29T03:40:15.265Z,-2.39
2023-01-29T03:43:13.359Z,-2.39
2023-01-29T03:46:10.150Z,-2.39
2023-01-29T03:48:45.943Z,-2.39
2023-01-29T03:51:36.132Z,-2.38
2023-01-29T03:54:21.395Z,-2.36
2023-01-29T03:57:18.511Z,-2.35
2023-01-29T03:59:55.867Z,-2.33
2023-01-29T04:02:52.775Z,-2.33
2023-01-29T04:05:49.157Z,-2.31
2023-01-29T04:08:47.699Z,-2.28
2023-01-29T04:11:22.112Z,-2.25
2023-01-29T04:14:13.545Z,-2.21
2023-01-29T04:17:01.206Z,-2.17
2023-01-29T04:19:56.697Z,-2.13
2023-01-29T04:22:51.167Z,-2.10
2023-01-29T04:25:30.557Z,-2.07
2023-01-29T04:28:27.441Z,-2.05
2023-01-29T04:31:19.313Z,-2.04
2023-01-29T04:34:23.318Z,-2.04
2023-01-29T04:37:22.840Z,-2.04
2023-01-29T04:40:21.178Z,-2.05
2023-01-29T04:43:20.574Z,-2.06
2023-01-29T04:46:18.547Z,-2.05
2023-01-29T04:49:24.810Z,-2.06
2023-01-29T04:52:23.893Z,-2.08
2023-01-29T04:55:22.742Z,-2.12
2023-01-29T04:58:17.613Z,-2.15
2023-01-29T05:01:12.343Z,-2.18
2023-01-29T05:04:07.427Z,-2.23
2023-01-29T05:06:58.298Z,-2.29
2023-01-29T05:09:50.809Z,-2.33
2023-01-29T05:12:34.459Z,-2.39
2023-01-29T05:15:32.872Z,-2.44
2023-01-29T05:18:24.129Z,-2.49
2023-01-29T05:21:15.315Z,-2.53
2023-01-29T05:24:18.789Z,-2.57
2023-01-29T05:27:34.218Z,-2.59
2023-01-29T05:30:25.181Z,-2.62
2023-01-29T05:33:18.079Z,-2.60
2023-01-29T05:36:09.963Z,-2.60
2023-01-29T05:38:50.682Z,-2.59
2023-01-29T05:41:41.529Z,-2.57
2023-01-29T05:44:32.230Z,-2.55
2023-01-29T05:47:23.235Z,-2.53
2023-01-29T05:50:16.437Z,-2.52
2023-01-29T05:53:01.325Z,-2.51
2023-01-29T05:55:46.971Z,-2.50
2023-01-29T05:58:38.515Z,-2.50
2023-01-29T06:01:16.814Z,-2.49
2023-01-29T06:04:06.494Z,-2.51
2023-01-29T06:06:49.869Z,-2.53
2023-01-29T06:09:40.834Z,-2.54
2023-01-29T06:12:31.780Z,-2.56
2023-01-29T06:15:15.377Z,-2.57
2023-01-29T06:18:06.343Z,-2.59
2023-01-29T06:21:01.074Z,-2.60
2023-01-29T06:23:35.142Z,-2.59
2023-01-29T06:26:25.886Z,-2.57
2023-01-29T06:29:16.898Z,-2.55
2023-01-29T06:32:08.092Z,-2.52
2023-01-29T06:34:53.215Z,-2.51
2023-01-29T06:37:44.089Z,-2.50
2023-01-29T06:40:34.750Z,-2.49
2023-01-29T06:43:26.193Z,-2.49
2023-01-29T06:46:16.915Z,-2.50
2023-01-29T06:49:07.641Z,-2.52
2023-01-29T06:51:58.574Z,-2.54
2023-01-29T06:54:49.268Z,-2.55
2023-01-29T06:57:40.076Z,-2.56
2023-01-29T07:00:31.604Z,-2.56
2023-01-29T07:03:23.541Z,-2.56
2023-01-29T07:06:14.324Z,-2.56
2023-01-29T07:09:05.623Z,-2.56
2023-01-29T07:11:56.371Z,-2.55
2023-01-29T07:14:47.366Z,-2.54
2023-01-29T07:17:38.220Z,-2.53
2023-01-29T07:20:30.740Z,-2.52
2023-01-29T07:23:20.591Z,-2.51
2023-01-29T07:26:13.031Z,-2.51
2023-01-29T07:29:05.603Z,-2.50
2023-01-29T07:31:56.356Z,-2.49
2023-01-29T07:34:47.082Z,-2.48
2023-01-29T07:37:37.769Z,-2.47
2023-01-29T07:40:28.543Z,-2.46
2023-01-29T07:43:19.195Z,-2.47
2023-01-29T07:46:10.124Z,-2.47
2023-01-29T07:49:01.893Z,-2.46
2023-01-29T07:51:52.610Z,-2.45
2023-01-29T07:54:43.337Z,-2.44
2023-01-29T07:57:33.989Z,-2.42
2023-01-29T08:00:25.814Z,-2.41
2023-01-29T08:03:18.636Z,-2.37
2023-01-29T08:06:09.903Z,-2.34
2023-01-29T08:09:00.634Z,-2.30
2023-01-29T08:11:51.310Z,-2.27
2023-01-29T08:14:42.121Z,-2.23
2023-01-29T08:17:32.951Z,-2.19
2023-01-29T08:20:24.463Z,-2.15
2023-01-29T08:23:15.435Z,-2.11
2023-01-29T08:26:06.970Z,-2.04
2023-01-29T08:28:57.721Z,-1.98
2023-01-29T08:31:49.156Z,-1.90
2023-01-29T08:34:39.900Z,-1.82
2023-01-29T08:37:30.679Z,-1.75
2023-01-29T08:40:21.782Z,-1.68
2023-01-29T08:43:14.548Z,-1.62
2023-01-29T08:46:06.099Z,-1.57
2023-01-29T08:49:00.648Z,-1.54
2023-01-29T08:51:42.817Z,-1.53
2023-01-29T08:54:33.521Z,-1.53
2023-01-29T08:57:24.287Z,-1.53
2023-01-29T09:00:17.779Z,-1.52
2023-01-29T09:03:08.766Z,-1.50
2023-01-29T09:05:59.717Z,-1.48
2023-01-29T09:08:35.415Z,-1.45
2023-01-29T09:11:26.309Z,-1.39
2023-01-29T09:14:17.076Z,-1.29
2023-01-29T09:17:07.805Z,-1.18
2023-01-29T09:19:58.850Z,-1.08
2023-01-29T09:22:52.040Z,-0.97
2023-01-29T09:25:36.686Z,-0.88
2023-01-29T09:28:27.492Z,-0.79
2023-01-29T09:31:09.848Z,-0.70
2023-01-29T09:34:00.586Z,-0.63
2023-01-29T09:36:44.589Z,-0.52
2023-01-29T09:39:27.928Z,-0.41
2023-01-29T09:42:05.102Z,-0.29
2023-01-29T09:45:04.663Z,-0.20
2023-01-29T09:47:58.604Z,-0.16
2023-01-29T09:50:52.865Z,-0.11
2023-01-29T09:53:41.888Z,-0.09
2023-01-29T09:56:19.306Z,-0.10
2023-01-29T09:59:14.276Z,-0.10
2023-01-29T10:02:12.240Z,-0.10
2023-01-29T10:05:18.933Z,-0.08
2023-01-29T10:08:30.130Z,-0.08
2023-01-29T10:11:33.937Z,-0.05
2023-01-29T10:14:27.552Z,-0.04
2023-01-29T10:17:37.092Z,-0.03
2023-01-29T10:20:58.555Z,0.04
2023-01-29T10:23:48.129Z,0.11
2023-01-29T10:26:40.792Z,0.15
2023-01-29T10:29:23.078Z,0.16
2023-01-29T10:32:06.025Z,0.21
2023-01-29T10:35:01.554Z,0.20
2023-01-29T10:37:55.292Z,0.20
2023-01-29T10:40:42.396Z,0.23
2023-01-29T10:43:40.210Z,0.29
2023-01-29T10:46:44.538Z,0.26
2023-01-29T10:49:50.668Z,0.23
2023-01-29T10:52:58.174Z,0.20
2023-01-29T10:56:02.401Z,0.21
2023-01-29T10:58:56.056Z,0.25
2023-01-29T11:01:39.840Z,0.27
2023-01-29T11:04:19.753Z,0.29
2023-01-29T11:07:02.810Z,0.33
2023-01-29T11:10:02.135Z,0.34
2023-01-29T11:12:54.426Z,0.37
2023-01-29T11:15:36.351Z,0.41
2023-01-29T11:18:14.111Z,0.46
2023-01-29T11:21:07.468Z,0.46
2023-01-29T11:24:17.506Z,0.44
2023-01-29T11:27:04.428Z,0.45
2023-01-29T11:29:56.761Z,0.49
2023-01-29T11:32:34.550Z,0.52
2023-01-29T11:35:26.372Z,0.49
2023-01-29T11:38:22.917Z,0.49
2023-01-29T11:41:06.717Z,0.48
2023-01-29T11:43:37.317Z,0.46
2023-01-29T11:46:21.712Z,0.45
2023-01-29T11:49:14.436Z,0.46
2023-01-29T11:52:03.295Z,0.48
2023-01-29T11:54:58.897Z,0.54
2023-01-29T11:57:42.759Z,0.55
2023-01-29T12:00:36.169Z,0.52
2023-01-29T12:03:36.007Z,0.50
2023-01-29T12:06:24.274Z,0.50
2023-01-29T12:09:14.470Z,0.49
2023-01-29T12:12:27.891Z,0.50
2023-01-29T12:15:22.908Z,0.47
2023-01-29T12:18:24.100Z,0.45
2023-01-29T12:21:13.101Z,0.52
2023-01-29T12:24:13.704Z,0.57
2023-01-29T12:26:52.893Z,0.61
2023-01-29T12:29:43.934Z,0.74
2023-01-29T12:32:32.222Z,0.85
2023-01-29T12:35:21.258Z,0.92
2023-01-29T12:38:01.935Z,1.00
2023-01-29T12:40:40.584Z,1.08
2023-01-29T12:43:16.822Z,1.13
2023-01-29T12:45:55.172Z,1.19
2023-01-29T12:48:43.690Z,1.35
2023-01-29T12:51:21.628Z,1.57
2023-01-29T12:53:56.607Z,1.81
2023-01-29T12:56:51.064Z,1.99
2023-01-29T12:59:34.281Z,2.23
2023-01-29T13:02:21.962Z,2.40
2023-01-29T13:04:59.094Z,2.50
2023-01-29T13:07:54.711Z,2.54
2023-01-29T13:10:43.911Z,2.75
2023-01-29T13:13:28.835Z,3.00
2023-01-29T13:16:15.756Z,3.16
2023-01-29T13:18:50.846Z,3.17
2023-01-29T13:21:38.259Z,3.13
2023-01-29T13:24:18.779Z,3.16
2023-01-29T13:26:52.845Z,3.20
2023-01-29T13:29:46.116Z,3.23
2023-01-29T13:32:37.673Z,3.20
2023-01-29T13:35:24.439Z,3.16
2023-01-29T13:37:56.451Z,3.11
2023-01-29T13:40:31.220Z,3.11
2023-01-29T13:43:22.739Z,3.15
2023-01-29T13:46:11.826Z,3.17
2023-01-29T13:48:58.322Z,3.19
2023-01-29T13:51:39.028Z,3.14
2023-01-29T13:54:29.972Z,3.17
2023-01-29T13:57:50.353Z,3.14
2023-01-29T14:00:58.993Z,3.00
2023-01-29T14:04:03.662Z,2.74
2023-01-29T14:06:57.389Z,2.50
2023-01-29T14:10:02.526Z,2.36
2023-01-29T14:12:50.244Z,2.24
2023-01-29T14:15:35.936Z,2.11
2023-01-29T14:18:19.494Z,2.03
2023-01-29T14:21:01.414Z,2.00
2023-01-29T14:23:46.827Z,2.00
2023-01-29T14:26:47.505Z,2.15
2023-01-29T14:29:35.438Z,2.31
2023-01-29T14:32:20.480Z,2.42
2023-01-29T14:34:55.709Z,2.60
2023-01-29T14:37:40.422Z,2.92
2023-01-29T14:40:21.862Z,3.06
2023-01-29T14:42:57.128Z,3.03
2023-01-29T14:45:30.137Z,2.89
2023-01-29T14:48:39.206Z,2.71
2023-01-29T14:51:37.640Z,2.52
2023-01-29T14:54:30.297Z,2.34
2023-01-29T14:57:21.510Z,2.11
2023-01-29T15:00:20.303Z,1.91
2023-01-29T15:03:01.941Z,1.77
2023-01-29T15:05:40.121Z,1.68
2023-01-29T15:08:35.276Z,1.58
2023-01-29T15:11:32.756Z,1.47
2023-01-29T15:14:24.977Z,1.29
2023-01-29T15:17:26.633Z,1.14
2023-01-29T15:20:24.956Z,1.02
2023-01-29T15:22:58.487Z,0.92
2023-01-29T15:25:53.579Z,0.81
2023-01-29T15:28:32.267Z,0.72
2023-01-29T15:31:05.776Z,0.64
2023-01-29T15:33:43.274Z,0.56
2023-01-29T15:36:34.854Z,0.49
2023-01-29T15:39:21.610Z,0.43
2023-01-29T15:42:21.677Z,0.35
2023-01-29T15:45:25.787Z,0.27
2023-01-29T15:48:17.430Z,0.22
2023-01-29T15:51:14.705Z,0.15
2023-01-29T15:53:52.291Z,0.10
2023-01-29T15:56:45.903Z,0.04
2023-01-29T15:59:22.979Z,-0.03
2023-01-29T16:02:25.624Z,-0.09
2023-01-29T16:05:17.404Z,-0.15
2023-01-29T16:08:12.926Z,-0.23
2023-01-29T16:10:51.688Z,-0.28
2023-01-29T16:13:35.262Z,-0.34
2023-01-29T16:16:17.865Z,-0.39
2023-01-29T16:19:00.821Z,-0.46
2023-01-29T16:21:47.145Z,-0.53
2023-01-29T16:24:39.377Z,-0.61
2023-01-29T16:27:25.908Z,-0.69
2023-01-29T16:30:11.603Z,-0.78
2023-01-29T16:32:50.365Z,-0.87
2023-01-29T16:35:42.048Z,-0.97
2023-01-29T16:38:31.218Z,-1.06
2023-01-29T16:41:31.987Z,-1.16
2023-01-29T16:44:36.886Z,-1.25
2023-01-29T16:47:36.366Z,-1.34
2023-01-29T16:50:40.599Z,-1.42
2023-01-29T16:53:36.735Z,-1.49
2023-01-29T16:56:09.472Z,-1.51
2023-01-29T16:58:43.152Z,-1.53
2023-01-29T17:01:36.842Z,-1.52
2023-01-29T17:04:29.001Z,-1.54
2023-01-29T17:07:22.297Z,-1.62
2023-01-29T17:10:21.035Z,-1.71
2023-01-29T17:13:20.511Z,-1.81
2023-01-29T17:16:04.615Z,-1.90
2023-01-29T17:18:48.459Z,-1.98
2023-01-29T17:21:39.795Z,-2.05
2023-01-29T17:24:20.423Z,-2.11
2023-01-29T17:27:20.120Z,-2.16
2023-01-29T17:30:17.456Z,-2.22
2023-01-29T17:33:02.828Z,-2.25
2023-01-29T17:35:53.964Z,-2.31
2023-01-29T17:38:44.841Z,-2.36
2023-01-29T17:41:22.461Z,-2.41
2023-01-29T17:44:04.290Z,-2.46
2023-01-29T17:46:55.513Z,-2.51
2023-01-29T17:49:46.831Z,-2.54
2023-01-29T17:52:37.655Z,-2.56
2023-01-29T17:55:28.560Z,-2.58
2023-01-29T17:58:19.345Z,-2.60
2023-01-29T18:01:01.816Z,-2.61
2023-01-29T18:03:52.736Z,-2.59
2023-01-29T18:06:45.763Z,-2.60
2023-01-29T18:09:29.226Z,-2.64
2023-01-29T18:12:20.124Z,-2.66
2023-01-29T18:15:12.991Z,-2.67
2023-01-29T18:17:56.720Z,-2.67
2023-01-29T18:20:47.546Z,-2.67
2023-01-29T18:23:23.925Z,-2.68
2023-01-29T18:26:04.514Z,-2.71
2023-01-29T18:28:55.368Z,-2.72
2023-01-29T18:31:40.197Z,-2.74
2023-01-29T18:34:31.075Z,-2.76
2023-01-29T18:37:21.843Z,-2.76
2023-01-29T18:39:52.916Z,-2.75
2023-01-29T18:42:28.308Z,-2.75
2023-01-29T18:45:04.908Z,-2.74
2023-01-29T18:47:54.565Z,-2.65
2023-01-29T18:50:27.534Z,-2.56
2023-01-29T18:53:07.706Z,-2.48
2023-01-29T18:55:59.515Z,-2.41
2023-01-29T18:58:52.260Z,-2.40
2023-01-29T19:01:28.873Z,-2.36
2023-01-29T19:04:02.035Z,-2.33
2023-01-29T19:06:43.289Z,-2.32
2023-01-29T19:09:34.263Z,-2.27
2023-01-29T19:12:16.171Z,-2.20
2023-01-29T19:14:46.838Z,-2.15
2023-01-29T19:17:18.051Z,-2.08
2023-01-29T19:20:02.241Z,-2.03
2023-01-29T19:22:36.387Z,-2.00
2023-01-29T19:25:19.777Z,-1.96
2023-01-29T19:27:53.742Z,-1.93
2023-01-29T19:30:33.703Z,-1.91
2023-01-29T19:33:07.758Z,-1.92
2023-01-29T19:35:51.220Z,-1.91
2023-01-29T19:38:42.563Z,-1.88
2023-01-29T19:41:16.418Z,-1.84
2023-01-29T19:43:56.354Z,-1.82
2023-01-29T19:46:39.008Z,-1.82
2023-01-29T19:49:19.796Z,-1.80
2023-01-29T19:51:50.405Z,-1.78
2023-01-29T19:54:43.113Z,-1.79
2023-01-29T19:57:17.212Z,-1.81
2023-01-29T19:59:48.129Z,-1.84
2023-01-29T20:02:18.796Z,-1.85
2023-01-29T20:05:12.760Z,-1.89
2023-01-29T20:07:53.658Z,-1.90
2023-01-29T20:10:24.472Z,-1.90
2023-01-29T20:13:17.179Z,-1.90
2023-01-29T20:15:52.011Z,-1.92
2023-01-29T20:18:22.965Z,-1.93
2023-01-29T20:20:57.010Z,-1.94
2023-01-29T20:23:38.014Z,-1.93
2023-01-29T20:26:16.591Z,-1.93
2023-01-29T20:28:48.353Z,-1.94
2023-01-29T20:31:19.038Z,-1.97
2023-01-29T20:33:52.785Z,-1.97
2023-01-29T20:36:23.212Z,-1.95
2023-01-29T20:38:53.843Z,-1.92
2023-01-29T20:41:24.618Z,-1.91
2023-01-29T20:43:55.186Z,-1.90
2023-01-29T20:46:38.091Z,-1.90
2023-01-29T20:49:08.907Z,-1.90
2023-01-29T20:51:42.357Z,-1.91
2023-01-29T20:54:22.319Z,-1.92
2023-01-29T20:56:56.500Z,-1.93
2023-01-29T20:59:30.565Z,-1.94
2023-01-29T21:02:04.015Z,-1.94
2023-01-29T21:04:54.960Z,-1.94
2023-01-29T21:07:28.902Z,-1.92
2023-01-29T21:10:00.750Z,-1.88
2023-01-29T21:12:34.048Z,-1.83
2023-01-29T21:15:16.511Z,-1.75
2023-01-29T21:17:48.104Z,-1.65
2023-01-29T21:20:21.362Z,-1.57
2023-01-29T21:22:54.839Z,-1.53
2023-01-29T21:25:46.003Z,-1.49
2023-01-29T21:28:26.744Z,-1.46
2023-01-29T21:31:12.330Z,-1.43
2023-01-29T21:33:43.008Z,-1.41
2023-01-29T21:36:16.020Z,-1.41
2023-01-29T21:38:46.639Z,-1.40
2023-01-29T21:41:45.689Z,-1.39
2023-01-29T21:44:15.663Z,-1.34
2023-01-29T21:46:46.265Z,-1.30
2023-01-29T21:49:17.040Z,-1.25
2023-01-29T21:51:51.168Z,-1.23
2023-01-29T21:54:31.375Z,-1.21
2023-01-29T21:57:15.996Z,-1.18
2023-01-29T21:59:48.407Z,-1.16
2023-01-29T22:02:26.618Z,-1.16
2023-01-29T22:05:16.440Z,-1.17
2023-01-29T22:07:52.678Z,-1.17
2023-01-29T22:10:24.123Z,-1.18
2023-01-29T22:13:07.870Z,-1.17
2023-01-29T22:15:38.533Z,-1.16
2023-01-29T22:18:18.277Z,-1.14
2023-01-29T22:20:57.220Z,-1.13
2023-01-29T22:23:31.199Z,-1.12
2023-01-29T22:26:06.771Z,-1.10
2023-01-29T22:28:38.148Z,-1.09
2023-01-29T22:31:11.103Z,-1.07
2023-01-29T22:33:45.555Z,-1.06
2023-01-29T22:36:16.492Z,-1.03
2023-01-29T22:38:50.455Z,-1.01
2023-01-29T22:41:21.108Z,-0.99
2023-01-29T22:43:51.887Z,-0.97
2023-01-29T22:46:25.504Z,-0.94
2023-01-29T22:48:56.602Z,-0.94
2023-01-29T22:51:30.138Z,-0.92
2023-01-29T22:54:01.419Z,-0.90
2023-01-29T22:56:32.048Z,-0.88
2023-01-29T22:59:05.021Z,-0.86
2023-01-29T23:01:55.782Z,-0.83
2023-01-29T23:04:29.481Z,-0.81
2023-01-29T23:07:11.230Z,-0.77
2023-01-29T23:10:01.929Z,-0.75
2023-01-29T23:12:35.753Z,-0.74
2023-01-29T23:15:26.414Z,-0.72
2023-01-29T23:17:57.079Z,-0.71
2023-01-29T23:20:27.773Z,-0.70
2023-01-29T23:23:01.615Z,-0.69
2023-01-29T23:25:46.365Z,-0.68
2023-01-29T23:28:29.962Z,-0.67
2023-01-29T23:31:00.709Z,-0.67
2023-01-29T23:33:44.555Z,-0.67
2023-01-29T23:36:24.193Z,-0.68
2023-01-29T23:39:15.492Z,-0.69
2023-01-29T23:41:49.322Z,-0.72
2023-01-29T23:44:22.109Z,-0.73
2023-01-29T23:46:52.708Z,-0.73
2023-01-29T23:49:33.493Z,-0.74
2023-01-29T23:52:24.256Z,-0.74
2023-01-29T23:55:14.975Z,-0.74
2023-01-29T23:58:05.819Z,-0.74
